Time;durP1;ratioP1;P1;durP2;ratioP2;P2;SDS_P1;SDS_P2;PMS_P1;PMS_P2;Temp;Humidity;BMP_temperature;BMP_pressure;BME280_temperature;BME280_humidity;BME280_pressure;Samples;Min_cycle;Max_cycle;Signal;HPM_P1;HPM_P2
2023/03/14 00:01:14;;;;;;;1.25;0.90;;;12.80;99.90;;;;;;5080791;28;20835;-53
2023/03/14 00:03:41;;;;;;;1.70;1.00;;;12.60;99.90;;;;;;5073251;28;20094;-53
2023/03/14 00:06:09;;;;;;;1.48;1.00;;;12.60;99.90;;;;;;5073021;28;20045;-55
2023/03/14 00:08:36;;;;;;;2.58;1.38;;;12.40;99.90;;;;;;5072912;28;20076;-54
2023/03/14 00:11:14;;;;;;;;;;;12.30;99.90;;;;;;5087931;28;20062;-54
2023/03/14 00:13:41;;;;;;;5.80;1.55;;;12.30;99.90;;;;;;5088127;28;19978;-51
2023/03/14 00:16:11;;;;;;;4.30;1.38;;;12.20;99.90;;;;;;5079868;28;20041;-51
2023/03/14 00:18:39;;;;;;;2.33;1.10;;;12.00;99.90;;;;;;5072650;28;20037;-54
2023/03/14 00:21:07;;;;;;;2.42;1.10;;;11.90;99.90;;;;;;5093149;28;20103;-51
2023/03/14 00:23:36;;;;;;;2.92;1.08;;;11.90;99.90;;;;;;5093161;28;20675;-54
2023/03/14 00:26:06;;;;;;;1.42;1.00;;;11.90;99.90;;;;;;5085220;28;20509;-53
2023/03/14 00:28:33;;;;;;;2.63;1.35;;;11.80;99.90;;;;;;5098952;28;20455;-54
2023/03/14 00:31:06;;;;;;;2.33;1.17;;;11.90;99.90;;;;;;5081846;28;20098;-53
2023/03/14 00:33:33;;;;;;;1.40;1.08;;;12.00;99.90;;;;;;5072672;28;20045;-53
2023/03/14 00:36:08;;;;;;;5.30;1.10;;;12.00;99.90;;;;;;5054544;28;20098;-54
2023/03/14 00:38:37;;;;;;;2.40;1.05;;;11.90;99.90;;;;;;5072430;28;20032;-54
2023/03/14 00:41:06;;;;;;;1.17;0.80;;;11.80;99.90;;;;;;5087143;28;20048;-52
2023/03/14 00:43:33;;;;;;;2.92;0.95;;;11.70;99.90;;;;;;5081291;28;20230;-55
2023/03/14 00:46:00;;;;;;;5.30;1.00;;;11.70;99.90;;;;;;5058992;28;20048;-56
2023/03/14 00:48:28;;;;;;;1.48;0.98;;;11.70;99.90;;;;;;5052337;28;20420;-55
2023/03/14 00:50:54;;;;;;;3.95;1.08;;;11.60;99.90;;;;;;5054705;28;20052;-55
2023/03/14 00:53:21;;;;;;;1.80;1.10;;;11.40;99.90;;;;;;5079190;28;20076;-55
2023/03/14 00:55:48;;;;;;;1.42;1.00;;;11.30;99.90;;;;;;5054410;28;20049;-55
2023/03/14 00:58:16;;;;;;;1.08;0.70;;;11.20;99.90;;;;;;5069519;28;20048;-53
2023/03/14 01:00:47;;;;;;;2.90;1.13;;;11.30;99.90;;;;;;5072210;28;20087;-52
2023/03/14 01:03:14;;;;;;;1.23;0.85;;;11.40;99.90;;;;;;5076404;28;20048;-51
2023/03/14 01:05:41;;;;;;;1.50;0.90;;;11.50;99.90;;;;;;5054526;28;20064;-56
2023/03/14 01:08:09;;;;;;;1.20;0.80;;;11.50;99.90;;;;;;5081045;28;20036;-56
2023/03/14 01:10:39;;;;;;;2.58;1.20;;;11.60;99.90;;;;;;5074126;28;20044;-54
2023/03/14 01:13:06;;;;;;;1.90;1.02;;;11.70;99.90;;;;;;5091593;28;20036;-55
2023/03/14 01:15:36;;;;;;;1.45;0.88;;;11.70;99.90;;;;;;5092157;28;20488;-55
2023/03/14 01:18:04;;;;;;;3.20;0.80;;;11.70;99.90;;;;;;5089551;28;20047;-53
2023/03/14 01:20:31;;;;;;;;;;;11.70;99.90;;;;;;5086042;28;20038;-53
2023/03/14 01:22:57;;;;;;;5.25;1.55;;;11.50;99.90;;;;;;5076580;28;19924;-53
2023/03/14 01:25:24;;;;;;;3.42;1.40;;;11.30;99.90;;;;;;5073811;28;20134;-56
2023/03/14 01:27:51;;;;;;;3.53;1.13;;;11.00;99.90;;;;;;5073835;28;20435;-52
2023/03/14 01:30:18;;;;;;;4.45;1.05;;;10.90;99.90;;;;;;5073670;28;20051;-52
2023/03/14 01:32:45;;;;;;;1.60;0.93;;;10.80;99.90;;;;;;5065082;28;20047;-50
2023/03/14 01:35:12;;;;;;;2.58;0.75;;;10.80;99.90;;;;;;5070375;28;20040;-50
2023/03/14 01:37:39;;;;;;;2.38;1.15;;;10.90;99.90;;;;;;5071721;28;20055;-52
2023/03/14 01:40:13;;;;;;;3.33;1.23;;;11.00;99.90;;;;;;5071422;28;20117;-52
2023/03/14 01:42:54;;;;;;;1.30;0.77;;;11.00;99.90;;;;;;5071828;28;20032;-55
2023/03/14 01:46:00;;;;;;;2.72;0.90;;;11.10;99.90;;;;;;5075143;28;20066;-55
2023/03/14 01:48:32;;;;;;;1.30;0.82;;;11.20;99.90;;;;;;5073171;28;20047;-52
2023/03/14 01:51:00;;;;;;;2.10;0.70;;;11.30;99.90;;;;;;5062870;28;20048;-53
2023/03/14 01:53:28;;;;;;;1.83;0.80;;;11.30;99.90;;;;;;5084520;28;20039;-52
2023/03/14 01:55:58;;;;;;;1.73;1.00;;;11.40;99.90;;;;;;5073585;28;20048;-52
2023/03/14 01:58:27;;;;;;;1.15;0.80;;;11.30;99.90;;;;;;5073347;28;20036;-51
2023/03/14 02:00:57;;;;;;;1.33;0.70;;;11.30;99.90;;;;;;5085108;28;20097;-54
2023/03/14 02:03:24;;;;;;;3.92;0.80;;;11.30;99.90;;;;;;5070902;28;20028;-52
2023/03/14 02:05:56;;;;;;;4.03;0.73;;;11.30;99.90;;;;;;5053593;28;20079;-54
2023/03/14 02:08:24;;;;;;;2.25;0.80;;;11.30;99.90;;;;;;5071769;28;20814;-55
2023/03/14 02:10:55;;;;;;;1.60;1.00;;;11.30;99.90;;;;;;5059756;28;20036;-53
2023/03/14 02:13:40;;;;;;;1.98;1.05;;;11.30;99.90;;;;;;5070759;28;20051;-55
2023/03/14 02:16:26;;;;;;;1.50;0.70;;;11.20;99.90;;;;;;5071123;28;20114;-54
2023/03/14 02:19:11;;;;;;;2.45;0.50;;;11.20;99.90;;;;;;5078872;28;20066;-51
2023/03/14 02:21:59;;;;;;;1.20;0.75;;;11.30;99.90;;;;;;5071413;28;20110;-52
2023/03/14 02:24:44;;;;;;;1.80;0.90;;;11.30;99.90;;;;;;5055759;28;20040;-51
2023/03/14 02:27:15;;;;;;;1.65;0.88;;;11.40;99.90;;;;;;5072489;28;20044;-53
2023/03/14 02:29:55;;;;;;;2.03;0.63;;;11.40;99.90;;;;;;5087038;28;20087;-55
2023/03/14 02:32:24;;;;;;;1.30;0.70;;;11.40;99.90;;;;;;5075403;28;20047;-51
2023/03/14 02:34:57;;;;;;;1.67;0.73;;;11.40;99.90;;;;;;5074924;28;20500;-51
2023/03/14 02:37:38;;;;;;;0.80;0.60;;;11.40;99.90;;;;;;5073238;28;20071;-52
2023/03/14 02:40:06;;;;;;;4.13;0.73;;;11.40;99.90;;;;;;5072264;28;20039;-51
2023/03/14 02:42:34;;;;;;;0.70;0.70;;;11.40;99.90;;;;;;5072475;28;20143;-53
2023/03/14 02:45:08;;;;;;;0.80;0.50;;;11.30;99.90;;;;;;5063183;28;20102;-52
2023/03/14 02:48:11;;;;;;;1.23;0.60;;;11.30;99.90;;;;;;5053141;28;20075;-52
2023/03/14 02:50:39;;;;;;;0.40;0.40;;;11.30;99.90;;;;;;5058417;28;20165;-52
2023/03/14 02:53:05;;;;;;;;;;;11.30;99.90;;;;;;5071815;28;20161;-55
2023/03/14 02:55:32;;;;;;;2.25;0.50;;;11.20;99.90;;;;;;5072494;28;20304;-52
2023/03/14 02:58:04;;;;;;;0.40;0.40;;;11.20;99.90;;;;;;5071800;28;20047;-52
2023/03/14 03:00:31;;;;;;;2.35;0.60;;;11.00;99.90;;;;;;5087263;28;20032;-50
2023/03/14 03:02:57;;;;;;;3.25;0.85;;;10.90;99.90;;;;;;5090623;28;20127;-55
2023/03/14 03:05:24;;;;;;;2.53;0.90;;;10.90;99.90;;;;;;5089689;28;20044;-52
2023/03/14 03:07:51;;;;;;;1.02;0.60;;;10.80;99.90;;;;;;5089430;28;20090;-56
2023/03/14 03:10:18;;;;;;;2.70;0.60;;;10.60;99.90;;;;;;5081068;28;20538;-54
2023/03/14 03:12:45;;;;;;;1.48;0.68;;;10.70;99.90;;;;;;5072355;28;20044;-57
2023/03/14 03:15:12;;;;;;;1.25;0.60;;;10.60;99.90;;;;;;5091025;28;20047;-55
2023/03/14 03:17:39;;;;;;;1.35;0.80;;;10.40;99.90;;;;;;5074710;28;20033;-53
2023/03/14 03:20:08;;;;;;;2.25;0.50;;;10.20;99.90;;;;;;5052294;28;20044;-55
2023/03/14 03:22:36;;;;;;;1.98;0.80;;;10.10;99.90;;;;;;5076129;28;20047;-53
2023/03/14 03:25:05;;;;;;;2.35;0.80;;;9.90;99.90;;;;;;5076095;28;20044;-55
2023/03/14 03:27:33;;;;;;;3.42;0.68;;;9.80;99.90;;;;;;5073382;28;20102;-54
2023/03/14 03:30:01;;;;;;;0.73;0.38;;;9.70;99.90;;;;;;5056244;28;20457;-56
2023/03/14 03:32:31;;;;;;;1.00;0.43;;;9.60;99.90;;;;;;5071001;28;20051;-55
2023/03/14 03:34:58;;;;;;;0.15;0.10;;;9.60;99.90;;;;;;5076789;28;20051;-52
2023/03/14 03:37:25;;;;;;;1.67;0.10;;;9.50;99.90;;;;;;5055838;28;20047;-55
2023/03/14 03:39:52;;;;;;;0.40;0.30;;;9.40;99.90;;;;;;5072494;28;20040;-54
2023/03/14 03:42:19;;;;;;;0.25;0.25;;;9.40;99.90;;;;;;5061586;28;20098;-54
2023/03/14 03:44:47;;;;;;;0.43;0.22;;;9.30;99.90;;;;;;5056244;28;20048;-57
2023/03/14 03:47:14;;;;;;;0.93;0.20;;;9.20;99.90;;;;;;5072488;28;20571;-57
2023/03/14 03:49:40;;;;;;;0.82;0.20;;;9.20;99.90;;;;;;5075673;28;20515;-53
2023/03/14 03:52:09;;;;;;;0.75;0.10;;;9.10;99.90;;;;;;5064045;28;20041;-55
2023/03/14 03:54:36;;;;;;;1.05;0.40;;;9.00;99.90;;;;;;5093783;28;20040;-56
2023/03/14 03:57:03;;;;;;;3.78;0.20;;;9.00;99.90;;;;;;5075199;28;20450;-57
2023/03/14 03:59:30;;;;;;;0.57;0.20;;;9.00;99.90;;;;;;5092430;28;20093;-56
2023/03/14 04:02:28;;;;;;;0.82;0.20;;;8.90;99.90;;;;;;5075852;28;20044;-51
2023/03/14 04:04:55;;;;;;;0.20;0.20;;;8.90;99.90;;;;;;5037202;28;20042;-47
2023/03/14 04:07:22;;;;;;;1.63;0.40;;;8.90;99.90;;;;;;5029589;28;20030;-47
2023/03/14 04:09:49;;;;;;;2.20;0.20;;;8.80;99.90;;;;;;5015837;28;20038;-47
2023/03/14 04:12:45;;;;;;;2.05;0.20;;;8.80;99.90;;;;;;5004981;28;20445;-47
2023/03/14 04:15:18;;;;;;;5.82;0.50;;;8.80;99.90;;;;;;5016300;28;20048;-47
2023/03/14 04:17:48;;;;;;;0.50;0.30;;;8.70;99.90;;;;;;5028535;28;20044;-47
2023/03/14 04:20:15;;;;;;;3.50;0.40;;;8.70;99.90;;;;;;5030809;28;20041;-47
2023/03/14 04:22:42;;;;;;;1.27;1.00;;;8.70;99.90;;;;;;5032247;28;20414;-48
2023/03/14 04:25:10;;;;;;;1.98;0.43;;;8.70;99.90;;;;;;5029330;28;20046;-49
2023/03/14 04:27:42;;;;;;;2.15;0.75;;;8.70;99.90;;;;;;5022831;28;20042;-49
2023/03/14 04:30:17;;;;;;;1.42;0.32;;;8.70;99.90;;;;;;5013677;28;20073;-48
2023/03/14 04:32:51;;;;;;;2.83;0.77;;;8.70;99.90;;;;;;5012576;28;20045;-48
2023/03/14 04:35:20;;;;;;;1.15;0.50;;;8.60;99.90;;;;;;5029954;28;20052;-48
2023/03/14 04:37:48;;;;;;;2.20;0.30;;;8.60;99.90;;;;;;5023087;28;20107;-48
2023/03/14 04:40:16;;;;;;;0.82;0.17;;;8.60;99.90;;;;;;5029034;28;20052;-49
2023/03/14 04:42:45;;;;;;;0.38;0.30;;;8.60;99.90;;;;;;5030852;28;20549;-49
2023/03/14 04:45:12;;;;;;;1.60;0.40;;;8.50;99.90;;;;;;5031095;28;20038;-48
2023/03/14 04:47:41;;;;;;;1.20;0.50;;;8.50;99.90;;;;;;5017023;28;20046;-48
2023/03/14 04:50:11;;;;;;;2.22;0.60;;;8.40;99.90;;;;;;5011502;28;20046;-50
2023/03/14 04:52:38;;;;;;;1.27;0.50;;;8.40;99.90;;;;;;5021814;28;20575;-47
2023/03/14 04:55:05;;;;;;;1.25;0.32;;;8.30;99.90;;;;;;5032537;28;20065;-49
2023/03/14 04:57:32;;;;;;;2.67;1.13;;;8.10;99.90;;;;;;5032680;28;20034;-50
2023/03/14 04:59:59;;;;;;;0.43;0.30;;;8.10;99.90;;;;;;5024228;28;20049;-51
2023/03/14 05:02:44;;;;;;;0.95;0.43;;;8.10;99.90;;;;;;5013118;28;20057;-49
2023/03/14 05:05:29;;;;;;;1.02;0.50;;;8.10;99.90;;;;;;5013221;28;20054;-47
2023/03/14 05:08:15;;;;;;;1.35;0.40;;;8.10;99.90;;;;;;5029311;28;20054;-49
2023/03/14 05:11:02;;;;;;;3.60;0.40;;;8.10;99.90;;;;;;5021324;28;20061;-51
2023/03/14 05:13:49;;;;;;;0.98;0.40;;;8.00;99.90;;;;;;5030819;28;20053;-47
2023/03/14 05:16:32;;;;;;;0.52;0.20;;;8.10;99.90;;;;;;5030022;28;20052;-49
2023/03/14 05:19:22;;;;;;;2.88;0.60;;;8.00;99.90;;;;;;5016528;28;20107;-49
2023/03/14 05:22:08;;;;;;;1.67;0.60;;;8.10;99.90;;;;;;5032139;28;20738;-49
2023/03/14 05:24:58;;;;;;;1.38;0.60;;;8.10;99.90;;;;;;5030563;28;20119;-49
2023/03/14 05:27:43;;;;;;;3.05;0.77;;;8.10;99.90;;;;;;5015937;28;20045;-48
2023/03/14 05:30:46;;;;;;;3.25;1.00;;;8.10;99.90;;;;;;4971163;28;20522;-49
2023/03/14 05:33:42;;;;;;;2.30;0.73;;;8.10;99.90;;;;;;5026134;28;20107;-48
2023/03/14 05:36:35;;;;;;;4.57;0.80;;;8.10;99.90;;;;;;5003990;28;20053;-49
2023/03/14 05:39:20;;;;;;;3.92;0.70;;;8.10;99.90;;;;;;5013216;28;20056;-48
2023/03/14 05:42:05;;;;;;;2.03;0.30;;;8.00;99.90;;;;;;5028371;28;20065;-48
2023/03/14 05:44:51;;;;;;;1.02;0.60;;;8.00;99.90;;;;;;5029446;28;20129;-49
2023/03/14 05:47:45;;;;;;;4.35;1.92;;;8.00;99.90;;;;;;5039425;28;20045;-48
2023/03/14 05:50:30;;;;;;;1.98;1.35;;;8.10;99.90;;;;;;5031100;28;20130;-49
2023/03/14 05:53:15;;;;;;;2.72;1.80;;;8.10;99.90;;;;;;5038330;28;20518;-47
2023/03/14 05:56:12;;;;;;;1.10;0.75;;;8.10;99.90;;;;;;5010357;28;20565;-49
2023/03/14 05:58:55;;;;;;;3.28;0.70;;;8.00;99.90;;;;;;5014244;28;20475;-46
2023/03/14 06:01:34;;;;;;;1.80;0.75;;;8.00;99.90;;;;;;5040858;28;20045;-47
2023/03/14 06:04:16;;;;;;;1.08;0.85;;;8.00;99.90;;;;;;5020775;28;20481;-47
2023/03/14 06:06:46;;;;;;;4.40;1.60;;;8.00;99.90;;;;;;5013697;28;20056;-47
2023/03/14 06:09:15;;;;;;;3.15;1.60;;;7.90;99.90;;;;;;5029399;28;20041;-47
2023/03/14 06:11:42;;;;;;;4.25;1.48;;;8.00;99.90;;;;;;5030374;28;20091;-48
2023/03/14 06:14:10;;;;;;;;;;;8.00;99.90;;;;;;5030343;28;20053;-46
2023/03/14 06:16:40;;;;;;;4.43;1.70;;;8.00;99.90;;;;;;5030103;28;19921;-49
2023/03/14 06:19:08;;;;;;;2.22;1.48;;;8.00;99.90;;;;;;5041875;28;20053;-47
2023/03/14 06:21:36;;;;;;;2.20;1.48;;;8.00;99.90;;;;;;5010156;28;20061;-47
2023/03/14 06:24:03;;;;;;;2.65;1.58;;;8.00;99.90;;;;;;5012265;28;20557;-48
2023/03/14 06:26:35;;;;;;;4.03;1.80;;;8.00;99.90;;;;;;5009976;28;20070;-46
2023/03/14 06:29:03;;;;;;;2.97;1.70;;;8.10;99.90;;;;;;5008760;28;20049;-47
2023/03/14 06:31:48;;;;;;;2.83;1.75;;;8.00;99.90;;;;;;5010432;28;20052;-48
2023/03/14 06:34:19;;;;;;;4.13;2.17;;;8.00;99.90;;;;;;5019968;28;20069;-48
2023/03/14 06:36:46;;;;;;;4.25;1.88;;;8.00;99.90;;;;;;5011582;28;20038;-48
2023/03/14 06:39:13;;;;;;;2.63;1.70;;;8.00;99.90;;;;;;5009453;28;20038;-49
2023/03/14 06:41:45;;;;;;;3.53;1.90;;;8.00;99.90;;;;;;5012327;28;20770;-48
2023/03/14 06:44:11;;;;;;;2.38;1.70;;;8.00;99.90;;;;;;5027142;28;20050;-49
2023/03/14 06:46:38;;;;;;;2.58;1.63;;;8.00;99.90;;;;;;5009741;28;20107;-48
2023/03/14 06:49:05;;;;;;;2.85;2.00;;;8.10;99.90;;;;;;5011150;28;20069;-48
2023/03/14 06:51:33;;;;;;;4.20;2.08;;;8.10;99.90;;;;;;5012765;28;20064;-48
2023/03/14 06:54:03;;;;;;;4.75;3.03;;;8.10;99.90;;;;;;5027951;28;20477;-48
2023/03/14 06:56:30;;;;;;;6.65;3.15;;;8.10;99.90;;;;;;5030036;28;20041;-49
2023/03/14 06:58:57;;;;;;;;;;;8.10;99.90;;;;;;5035050;28;20049;-48
2023/03/14 07:01:29;;;;;;;8.00;3.25;;;8.10;99.90;;;;;;5034777;28;20365;-48
2023/03/14 07:04:04;;;;;;;7.43;4.60;;;8.10;99.90;;;;;;5033799;28;20041;-48
2023/03/14 07:06:33;;;;;;;8.30;4.25;;;8.00;99.90;;;;;;5041261;28;20065;-48
2023/03/14 07:09:00;;;;;;;10.07;4.93;;;8.10;99.90;;;;;;5015919;28;20053;-48
2023/03/14 07:11:29;;;;;;;6.60;3.40;;;8.10;99.90;;;;;;5033365;28;20049;-48
2023/03/14 07:13:56;;;;;;;8.40;3.20;;;8.00;99.90;;;;;;5034855;28;20051;-48
2023/03/14 07:16:24;;;;;;;7.88;3.58;;;8.00;99.90;;;;;;5026385;28;20037;-49
2023/03/14 07:18:51;;;;;;;4.38;2.80;;;8.00;99.90;;;;;;5011411;28;20129;-48
2023/03/14 07:21:18;;;;;;;8.63;3.40;;;8.00;99.90;;;;;;5011709;28;20054;-49
2023/03/14 07:23:45;;;;;;;4.75;3.05;;;8.00;99.90;;;;;;5015880;28;20040;-48
2023/03/14 07:26:13;;;;;;;5.20;2.80;;;8.00;99.90;;;;;;5021743;28;20136;-49
2023/03/14 07:28:45;;;;;;;6.60;2.80;;;8.00;99.90;;;;;;5031229;28;20042;-48
2023/03/14 07:31:15;;;;;;;9.63;5.60;;;8.00;99.90;;;;;;5032217;28;20045;-48
2023/03/14 07:33:43;;;;;;;7.97;2.97;;;7.90;99.90;;;;;;5033141;28;20506;-48
2023/03/14 07:36:10;;;;;;;5.45;2.40;;;7.80;99.90;;;;;;5024426;28;20050;-48
2023/03/14 07:38:38;;;;;;;4.57;2.47;;;7.80;99.90;;;;;;5012803;28;20136;-48
2023/03/14 07:41:15;;;;;;;4.22;2.58;;;7.80;99.90;;;;;;5013533;28;20144;-48
2023/03/14 07:44:05;;;;;;;9.70;4.30;;;7.70;99.90;;;;;;5014438;28;20077;-48
2023/03/14 07:46:31;;;;;;;15.23;4.18;;;7.80;99.90;;;;;;5013543;28;20430;-48
2023/03/14 07:48:58;;;;;;;7.65;2.00;;;7.70;99.90;;;;;;5014203;28;20417;-48
2023/03/14 07:51:25;;;;;;;4.35;2.50;;;7.70;99.90;;;;;;5017857;28;20100;-49
2023/03/14 07:53:51;;;;;;;8.40;4.15;;;7.60;99.90;;;;;;5022371;28;20557;-48
2023/03/14 07:56:18;;;;;;;6.10;2.80;;;7.70;99.90;;;;;;5017205;28;20441;-47
2023/03/14 07:58:45;;;;;;;5.82;2.25;;;7.60;99.90;;;;;;5033509;28;20029;-48
2023/03/14 08:01:11;;;;;;;2.75;1.63;;;7.70;99.90;;;;;;5032692;28;20041;-50
2023/03/14 08:03:38;;;;;;;2.92;1.70;;;7.70;99.90;;;;;;5033510;28;20494;-49
2023/03/14 08:06:05;;;;;;;5.60;2.13;;;7.70;99.90;;;;;;5030652;28;20111;-48
2023/03/14 08:08:32;;;;;;;3.95;1.67;;;7.70;99.90;;;;;;5012966;28;20054;-48
2023/03/14 08:11:08;;;;;;;5.00;1.70;;;7.70;99.90;;;;;;5014417;28;20046;-48
2023/03/14 08:13:36;;;;;;;3.55;1.60;;;7.80;99.90;;;;;;5033758;28;20045;-48
2023/03/14 08:16:03;;;;;;;2.10;1.23;;;7.70;99.90;;;;;;5032686;28;20056;-49
2023/03/14 08:18:31;;;;;;;2.45;1.92;;;7.70;99.90;;;;;;5033813;28;20041;-48
2023/03/14 08:20:57;;;;;;;3.65;1.90;;;7.80;99.90;;;;;;5024774;28;20109;-48
2023/03/14 08:23:24;;;;;;;6.85;2.65;;;7.80;99.90;;;;;;5033332;28;20059;-48
2023/03/14 08:25:51;;;;;;;3.47;1.50;;;7.80;99.90;;;;;;5033376;28;20042;-48
2023/03/14 08:28:18;;;;;;;5.63;2.20;;;7.90;99.90;;;;;;5033123;28;20045;-48
2023/03/14 08:30:45;;;;;;;4.10;2.10;;;7.90;99.90;;;;;;5033219;28;20045;-48
2023/03/14 08:33:13;;;;;;;7.13;2.83;;;7.80;99.90;;;;;;5025081;28;20407;-48
2023/03/14 08:35:40;;;;;;;6.68;2.15;;;7.80;99.90;;;;;;5031447;28;20099;-48
2023/03/14 08:38:07;;;;;;;6.50;2.42;;;7.70;99.90;;;;;;5033344;28;20399;-48
2023/03/14 08:40:33;;;;;;;4.97;2.80;;;7.70;99.90;;;;;;5032819;28;20383;-49
2023/03/14 08:43:00;;;;;;;4.20;2.35;;;7.70;99.90;;;;;;5031665;28;20083;-48
2023/03/14 08:45:27;;;;;;;3.88;2.28;;;7.70;99.90;;;;;;5028280;28;20053;-48
2023/03/14 08:47:53;;;;;;;15.48;3.10;;;7.70;99.90;;;;;;5029922;28;20072;-48
2023/03/14 08:50:20;;;;;;;2.50;1.55;;;7.70;99.90;;;;;;5031385;28;20045;-49
2023/03/14 08:52:47;;;;;;;4.75;1.60;;;7.70;99.90;;;;;;5033028;28;20099;-48
2023/03/14 08:55:14;;;;;;;14.02;1.90;;;7.80;99.90;;;;;;5047603;28;20051;-49
2023/03/14 08:57:41;;;;;;;3.75;1.23;;;7.80;99.90;;;;;;5033264;28;20485;-48
2023/03/14 09:00:12;;;;;;;5.65;2.00;;;7.80;99.90;;;;;;5030800;28;20042;-48
2023/03/14 09:02:38;;;;;;;3.72;1.52;;;7.80;99.90;;;;;;5032648;28;20049;-48
2023/03/14 09:05:06;;;;;;;5.95;2.17;;;7.80;99.90;;;;;;5030894;28;20480;-48
2023/03/14 09:07:33;;;;;;;117.35;7.57;;;7.80;99.90;;;;;;5030773;28;20103;-48
2023/03/14 09:10:00;;;;;;;128.10;11.10;;;7.80;99.90;;;;;;5012921;28;20103;-48
2023/03/14 09:12:26;;;;;;;5.50;2.63;;;7.80;99.90;;;;;;5011896;28;20477;-49
2023/03/14 09:14:53;;;;;;;5.65;2.90;;;7.80;99.90;;;;;;5012601;28;20487;-48
2023/03/14 09:17:20;;;;;;;9.73;3.92;;;7.80;99.90;;;;;;5021105;28;20108;-49
2023/03/14 09:19:47;;;;;;;5.82;4.32;;;7.80;99.90;;;;;;5031123;28;20091;-48
2023/03/14 09:22:13;;;;;;;4.88;2.58;;;7.70;99.90;;;;;;5030440;28;20046;-48
2023/03/14 09:24:41;;;;;;;2.25;1.42;;;7.70;99.90;;;;;;5032418;28;20291;-49
2023/03/14 09:27:07;;;;;;;;;;;7.60;99.90;;;;;;5031958;28;20049;-48
2023/03/14 09:29:34;;;;;;;4.03;1.60;;;7.50;99.90;;;;;;5031756;28;19932;-49
2023/03/14 09:32:01;;;;;;;5.00;1.60;;;7.30;99.90;;;;;;5030290;28;20083;-48
2023/03/14 09:34:28;;;;;;;6.22;1.50;;;7.10;99.90;;;;;;5017696;28;20401;-48
2023/03/14 09:36:55;;;;;;;3.08;1.13;;;7.00;99.90;;;;;;5012167;28;20096;-48
2023/03/14 09:39:21;;;;;;;2.78;1.10;;;7.00;99.90;;;;;;5010829;28;20091;-49
2023/03/14 09:41:50;;;;;;;2.65;1.30;;;7.00;99.90;;;;;;5016765;28;20457;-48
2023/03/14 09:44:37;;;;;;;2.33;1.23;;;7.00;99.90;;;;;;5037241;28;20517;-48
2023/03/14 09:47:11;;;;;;;3.80;1.40;;;7.00;99.90;;;;;;5031336;28;20045;-48
2023/03/14 09:49:40;;;;;;;4.47;2.30;;;7.00;99.90;;;;;;5031736;28;20049;-48
2023/03/14 09:52:31;;;;;;;6.75;3.30;;;6.80;99.90;;;;;;5023102;28;20051;-48
2023/03/14 09:55:12;;;;;;;1.90;0.80;;;6.70;99.90;;;;;;5020819;28;20077;-49
2023/03/14 09:57:41;;;;;;;4.20;1.00;;;6.60;99.90;;;;;;5030012;28;20438;-50
2023/03/14 10:00:23;;;;;;;1.75;1.20;;;6.70;99.90;;;;;;5029118;28;20497;-48
2023/03/14 10:03:02;;;;;;;6.28;2.97;;;6.60;99.90;;;;;;5049240;22;20116;-51
2023/03/14 10:05:29;;;;;;;2.47;1.13;;;6.50;99.90;;;;;;5077983;28;20493;-53
2023/03/14 10:07:56;;;;;;;2.33;1.40;;;6.50;99.90;;;;;;5083145;28;20048;-51
2023/03/14 10:10:25;;;;;;;1.00;0.90;;;6.40;99.90;;;;;;5089225;28;20040;-52
2023/03/14 10:13:01;;;;;;;3.20;1.13;;;6.50;99.90;;;;;;5091362;28;20089;-51
2023/03/14 10:15:33;;;;;;;1.70;0.98;;;6.50;99.90;;;;;;5091534;28;20071;-50
2023/03/14 10:18:03;;;;;;;1.38;0.40;;;6.60;99.90;;;;;;5083324;28;20044;-51
2023/03/14 10:20:38;;;;;;;1.20;0.70;;;6.60;99.90;;;;;;5070970;28;20037;-51
2023/03/14 10:23:21;;;;;;;2.60;1.00;;;6.60;99.90;;;;;;5071093;28;20066;-53
2023/03/14 10:26:14;;;;;;;2.50;0.93;;;6.60;99.90;;;;;;5071533;28;20083;-52
2023/03/14 10:28:51;;;;;;;2.13;1.05;;;6.60;99.90;;;;;;5070868;28;20106;-51
2023/03/14 10:31:18;;;;;;;2.63;1.05;;;6.80;99.90;;;;;;5071225;28;20471;-51
2023/03/14 10:34:03;;;;;;;3.33;1.20;;;6.80;99.90;;;;;;5070983;28;20105;-50
2023/03/14 10:36:32;;;;;;;2.78;1.00;;;6.90;99.90;;;;;;5073079;28;20089;-52
2023/03/14 10:39:22;;;;;;;2.47;0.93;;;6.90;99.90;;;;;;5070633;28;20037;-52
2023/03/14 10:41:52;;;;;;;1.58;0.40;;;7.00;99.90;;;;;;5070911;28;20488;-50
2023/03/14 10:44:23;;;;;;;5.32;0.55;;;7.00;99.90;;;;;;5070861;28;20455;-50
2023/03/14 10:47:00;;;;;;;1.45;0.63;;;7.00;99.90;;;;;;5077017;28;20041;-50
2023/03/14 10:49:36;;;;;;;0.43;0.20;;;6.90;99.90;;;;;;5083974;28;20040;-50
2023/03/14 10:52:27;;;;;;;0.90;0.47;;;6.90;99.90;;;;;;5091218;28;20101;-52
2023/03/14 10:55:13;;;;;;;2.30;0.80;;;6.80;99.90;;;;;;5080309;28;20123;-52
2023/03/14 10:57:41;;;;;;;1.98;1.15;;;6.90;99.90;;;;;;5070963;28;20044;-51
2023/03/14 11:00:16;;;;;;;4.75;1.23;;;6.90;99.90;;;;;;5069934;28;20033;-52
2023/03/14 11:03:08;;;;;;;3.63;1.50;;;6.90;99.90;;;;;;5071298;28;20504;-50
2023/03/14 11:05:49;;;;;;;3.28;1.70;;;6.90;99.90;;;;;;5079142;28;20040;-50
2023/03/14 11:08:41;;;;;;;6.00;2.45;;;7.00;99.90;;;;;;5070124;28;20059;-53
2023/03/14 11:11:23;;;;;;;6.07;3.00;;;7.10;99.90;;;;;;5070700;28;20059;-50
2023/03/14 11:14:08;;;;;;;2.17;1.10;;;7.30;99.90;;;;;;5070211;28;20044;-50
2023/03/14 11:16:44;;;;;;;7.32;2.38;;;7.20;99.90;;;;;;5070142;28;20037;-53
2023/03/14 11:19:26;;;;;;;5.00;1.40;;;7.30;99.90;;;;;;5070224;28;20041;-52
2023/03/14 11:22:20;;;;;;;1.77;0.77;;;7.40;99.90;;;;;;5070428;28;20439;-51
2023/03/14 11:25:02;;;;;;;3.72;0.63;;;7.60;99.90;;;;;;5070655;28;20444;-50
2023/03/14 11:27:44;;;;;;;0.60;0.32;;;7.90;99.90;;;;;;5069771;28;20109;-50
2023/03/14 11:30:35;;;;;;;7.13;3.45;;;8.10;99.90;;;;;;5070293;28;20529;-51
2023/03/14 11:33:13;;;;;;;1.10;0.85;;;8.30;99.90;;;;;;5070266;28;20067;-51
2023/03/14 11:35:59;;;;;;;2.35;1.20;;;8.60;99.90;;;;;;5070193;28;20131;-53
2023/03/14 11:38:30;;;;;;;4.82;2.05;;;8.70;99.90;;;;;;5070278;28;20119;-50
2023/03/14 11:40:58;;;;;;;6.63;0.68;;;8.90;99.90;;;;;;5084594;28;20302;-50
2023/03/14 11:43:34;;;;;;;1.77;0.82;;;8.80;99.90;;;;;;5086496;28;20161;-50
2023/03/14 11:46:17;;;;;;;1.48;0.40;;;8.80;99.90;;;;;;5094322;28;20516;-51
2023/03/14 11:49:25;;;;;;;1.92;0.90;;;9.10;99.90;;;;;;5073696;28;20033;-53
2023/03/14 11:52:02;;;;;;;0.43;0.43;;;9.50;99.90;;;;;;5052393;28;20048;-52
2023/03/14 11:54:49;;;;;;;0.52;0.40;;;9.70;99.90;;;;;;5079892;28;20506;-52
2023/03/14 11:57:21;;;;;;;1.08;0.63;;;9.90;99.90;;;;;;5085490;28;20050;-52
2023/03/14 12:00:16;;;;;;;0.95;0.50;;;9.80;99.90;;;;;;5094040;28;20106;-52
2023/03/14 12:02:58;;;;;;;0.80;0.57;;;9.70;99.90;;;;;;5093763;28;20043;-51
2023/03/14 12:05:55;;;;;;;1.08;0.30;;;9.90;99.90;;;;;;5080990;28;20032;-51
2023/03/14 12:08:43;;;;;;;0.40;0.17;;;9.90;99.90;;;;;;5073171;28;20566;-51
2023/03/14 12:11:34;;;;;;;1.00;0.30;;;9.80;99.90;;;;;;5073796;28;20052;-54
2023/03/14 12:14:01;;;;;;;1.48;0.50;;;9.70;99.90;;;;;;5088732;28;20100;-53
2023/03/14 12:16:38;;;;;;;;;;;9.90;99.90;;;;;;5088961;28;20094;-53
2023/03/14 12:19:20;;;;;;;0.43;0.43;;;10.00;99.90;;;;;;5072236;28;19927;-50
2023/03/14 12:21:54;;;;;;;0.50;0.20;;;10.20;99.90;;;;;;5073566;28;20045;-51
2023/03/14 12:24:30;;;;;;;0.43;0.30;;;10.20;99.90;;;;;;5072638;28;20078;-50
2023/03/14 12:27:01;;;;;;;1.52;0.80;;;10.40;99.90;;;;;;5073105;28;20044;-51
2023/03/14 12:29:29;;;;;;;0.30;0.30;;;10.40;99.90;;;;;;5072709;28;20555;-51
2023/03/14 12:32:20;;;;;;;0.60;0.50;;;10.50;99.90;;;;;;5071928;28;20048;-50
2023/03/14 12:34:47;;;;;;;1.80;0.90;;;10.40;99.90;;;;;;5055327;28;20475;-53
2023/03/14 12:37:23;;;;;;;0.80;0.43;;;10.30;99.90;;;;;;5077978;28;20097;-52
2023/03/14 12:40:20;;;;;;;1.38;0.80;;;10.50;99.90;;;;;;5072897;28;20097;-51
2023/03/14 12:42:58;;;;;;;1.00;0.70;;;10.60;99.90;;;;;;5072500;28;20090;-50
2023/03/14 12:45:25;;;;;;;;;;;10.70;99.90;;;;;;5078775;28;20553;-51
2023/03/14 12:48:21;;;;;;;1.45;0.50;;;10.70;99.90;;;;;;5079113;28;20466;-53
2023/03/14 12:50:56;;;;;;;0.52;0.30;;;10.70;99.90;;;;;;5073126;28;20497;-50
2023/03/14 12:53:31;;;;;;;0.28;0.20;;;10.80;99.90;;;;;;5072031;28;20094;-51
2023/03/14 12:56:20;;;;;;;0.68;0.47;;;10.70;99.90;;;;;;5072878;28;20072;-50
2023/03/14 12:59:09;;;;;;;1.90;0.77;;;10.70;99.90;;;;;;5083503;28;20442;-52
2023/03/14 13:01:36;;;;;;;1.83;0.85;;;10.70;99.90;;;;;;5092882;28;20109;-50
2023/03/14 13:04:09;;;;;;;0.57;0.30;;;10.70;99.90;;;;;;5092735;28;20052;-53
2023/03/14 13:07:00;;;;;;;0.70;0.30;;;10.60;99.90;;;;;;5085560;28;20055;-51
2023/03/14 13:09:32;;;;;;;2.20;0.40;;;10.60;99.90;;;;;;5085554;28;20101;-50
2023/03/14 13:12:11;;;;;;;3.08;0.30;;;10.80;99.90;;;;;;5078700;28;20055;-51
2023/03/14 13:14:45;;;;;;;0.70;0.30;;;10.90;99.90;;;;;;5072582;28;20428;-50
2023/03/14 13:17:14;;;;;;;0.80;0.60;;;11.10;99.90;;;;;;5071737;28;20070;-50
2023/03/14 13:20:09;;;;;;;0.82;0.30;;;11.00;99.90;;;;;;5073673;28;20063;-53
2023/03/14 13:22:38;;;;;;;0.52;0.30;;;10.70;99.90;;;;;;5076727;28;20040;-50
2023/03/14 13:25:10;;;;;;;3.03;2.00;;;10.50;99.90;;;;;;5054384;28;20048;-50
2023/03/14 13:27:37;;;;;;;1.17;0.50;;;10.30;99.90;;;;;;5072171;28;20067;-51